logo
Search for airport 
image banner adimage banner adimage banner ad
image banner ad

OIBH - Bahregan

Located in Bandar Deylam, Iran, Islamic Republic of

ICAO - OIBH, IATA - IAQ

Data provided by Airmate  

General information

Coordinates: N29°50'23" E50°16'20"
Elevation is 32 feet MSL.
 
View others Airports in Hormozgan Province

Operational data

Special qualification required
Current time UTC:
Current local time:
Weather
METAR: OIBH 130600Z 26006KT CAVOK 27/14 Q1008 A2977
View NOTAMs / SUP AIP / TFR affecting this airport [VIEW]
Communications frequencies: [VIEW]

Runways:

RWY identifierQFULength (ft)Width (ft)SurfaceLDA (ft)
15150°722198UNK
33330°722198UNK

Airport contact information

Address: Bandar Deylam Iran, Islamic Republic of

Satellite view of OIBH